Time;durP1;ratioP1;P1;durP2;ratioP2;P2;SDS_P1;SDS_P2;PMS_P1;PMS_P2;Temp;Humidity;BMP_temperature;BMP_pressure;BME280_temperature;BME280_humidity;BME280_pressure;Samples;Min_cycle;Max_cycle;Signal;HPM_P1;HPM_P2
2022/10/28 00:01:23;;;;;;;16.05;8.03;;;;;;;9.33;77.21;100453.64;1703787;82;21083;-79
2022/10/28 00:03:57;;;;;;;17.98;7.05;;;;;;;9.18;77.91;100451.89;1699738;82;21023;-79
2022/10/28 00:06:30;;;;;;;16.12;7.72;;;;;;;9.12;77.55;100460.52;1701379;82;22408;-78
2022/10/28 00:08:58;;;;;;;26.33;8.15;;;;;;;9.05;78.60;100456.61;1677025;85;20995;-79
2022/10/28 00:11:30;;;;;;;15.70;7.33;;;;;;;9.00;77.98;100454.45;1691453;83;21051;-80
2022/10/28 00:14:01;;;;;;;16.20;7.20;;;;;;;8.95;79.14;100450.11;1701215;83;21103;-79
2022/10/28 00:16:32;;;;;;;17.32;7.80;;;;;;;8.92;78.87;100459.17;1710189;82;20992;-78
2022/10/28 00:19:01;;;;;;;15.68;7.10;;;;;;;8.89;79.20;100459.17;1699533;83;21071;-79
2022/10/28 00:21:33;;;;;;;14.60;7.05;;;;;;;8.88;79.34;100457.42;1689082;83;21050;-79
2022/10/28 00:24:01;;;;;;;22.15;8.25;;;;;;;8.91;79.91;100460.05;1715744;83;20996;-79
2022/10/28 00:26:31;;;;;;;19.57;8.88;;;;;;;8.91;79.93;100462.64;1693244;85;22037;-79
2022/10/28 00:29:03;;;;;;;19.17;8.33;;;;;;;8.88;79.29;100459.16;1704866;82;21062;-80
2022/10/28 00:31:33;;;;;;;14.30;7.33;;;;;;;8.71;79.40;100437.93;1711155;82;21074;-79
2022/10/28 00:34:03;;;;;;;21.27;8.60;;;;;;;8.86;79.22;100467.37;1708043;83;21022;-80
2022/10/28 00:36:35;;;;;;;16.50;7.97;;;;;;;8.80;79.42;100461.72;1717330;82;21031;-79
2022/10/28 00:39:18;;;;;;;17.70;7.87;;;;;;;8.82;79.80;100462.59;1708561;82;21071;-81
2022/10/28 00:41:53;;;;;;;20.15;9.98;;;;;;;8.81;80.25;100459.98;1695403;82;21071;-80
2022/10/28 00:44:50;;;;;;;16.77;8.50;;;;;;;8.81;79.55;100459.55;1697081;83;21043;-79
2022/10/28 00:47:39;;;;;;;17.57;8.13;;;;;;;8.74;79.76;100458.67;1678562;83;21023;-78
2022/10/28 00:50:17;;;;;;;16.32;7.17;;;;;;;8.71;79.38;100456.48;1698982;82;21038;-81
2022/10/28 00:52:50;;;;;;;18.65;7.97;;;;;;;8.62;80.07;100449.98;1715638;82;21027;-79
2022/10/28 00:55:19;;;;;;;20.35;7.62;;;;;;;8.63;79.94;100459.48;1698542;82;21059;-79
2022/10/28 00:57:47;;;;;;;19.00;8.18;;;;;;;8.62;80.56;100459.06;1707495;83;21381;-79
2022/10/28 01:00:16;;;;;;;20.08;8.48;;;;;;;8.60;79.86;100446.52;1697529;83;21103;-78
2022/10/28 01:02:47;;;;;;;19.37;7.72;;;;;;;8.53;81.14;100449.49;1711573;83;20992;-80
2022/10/28 01:05:28;;;;;;;16.15;7.80;;;;;;;8.51;80.37;100454.66;1695006;82;21634;-81
2022/10/28 01:08:00;;;;;;;14.28;7.72;;;;;;;8.50;79.76;100451.65;1693292;82;21019;-80
2022/10/28 01:10:33;;;;;;;12.80;6.65;;;;;;;8.46;79.96;100448.61;1701185;83;21146;-79
2022/10/28 01:13:18;;;;;;;13.55;7.25;;;;;;;8.45;79.73;100445.56;1691914;82;21052;-80
2022/10/28 01:15:54;;;;;;;32.05;7.97;;;;;;;8.44;79.94;100445.14;1690828;83;21007;-80
2022/10/28 01:18:45;;;;;;;18.30;8.20;;;;;;;8.48;80.03;100448.62;1715764;83;21041;-79
2022/10/28 01:21:41;;;;;;;12.60;6.60;;;;;;;8.49;79.85;100449.90;1698059;82;21289;-79
2022/10/28 01:24:34;;;;;;;15.60;7.47;;;;;;;8.47;79.95;100445.58;1698889;83;22212;-80
2022/10/28 01:27:36;;;;;;;15.05;7.50;;;;;;;8.44;79.69;100442.55;1709295;83;21034;-80
2022/10/28 01:30:22;;;;;;;17.92;7.70;;;;;;;8.48;79.60;100449.91;1691558;85;21651;-79
2022/10/28 01:33:07;;;;;;;13.55;7.85;;;;;;;8.46;79.51;100439.53;1693276;82;21643;-79
2022/10/28 01:35:56;;;;;;;19.85;7.90;;;;;;;8.48;79.66;100443.44;1694952;83;21015;-78
2022/10/28 01:38:50;;;;;;;15.18;7.37;;;;;;;8.47;79.23;100441.25;1691523;82;21027;-80
2022/10/28 01:41:41;;;;;;;12.55;6.17;;;;;;;8.46;79.26;100442.12;1694727;83;21099;-79
2022/10/28 01:44:29;;;;;;;13.03;6.50;;;;;;;8.42;79.10;100442.97;1698191;82;21482;-79
2022/10/28 01:47:29;;;;;;;11.22;6.25;;;;;;;8.32;78.91;100442.45;1704318;83;21045;-80
2022/10/28 01:50:02;;;;;;;13.38;6.05;;;;;;;8.20;78.60;100438.47;1708782;83;21091;-80
2022/10/28 01:52:32;;;;;;;13.25;6.05;;;;;;;8.09;79.82;100439.27;1707187;83;21099;-79
2022/10/28 01:55:10;;;;;;;15.63;5.22;;;;;;;8.04;79.42;100442.28;1716040;83;21015;-79
2022/10/28 01:57:41;;;;;;;14.28;6.30;;;;;;;8.01;79.65;100443.54;1710387;83;21631;-79
2022/10/28 02:00:11;;;;;;;13.78;6.47;;;;;;;7.95;80.21;100439.18;1680355;85;21022;-80
2022/10/28 02:02:42;;;;;;;9.33;5.08;;;;;;;7.88;80.15;100436.56;1707088;83;21039;-79
2022/10/28 02:05:50;;;;;;;12.82;5.97;;;;;;;7.82;79.07;100441.66;1701023;83;21090;-79
2022/10/28 02:08:23;;;;;;;16.73;6.53;;;;;;;7.65;79.63;100432.05;1703999;83;21111;-81
2022/10/28 02:11:22;;;;;;;13.80;6.58;;;;;;;7.68;80.28;100439.86;1685363;85;21068;-79
2022/10/28 02:14:30;;;;;;;22.07;7.00;;;;;;;7.67;80.47;100441.13;1705575;84;21090;-79
2022/10/28 02:17:43;;;;;;;10.23;5.92;;;;;;;7.67;81.73;100441.98;1686459;84;21035;-81
2022/10/28 02:20:44;;;;;;;14.05;6.75;;;;;;;7.66;80.86;100449.33;1696079;84;21027;-79
2022/10/28 02:23:28;;;;;;;15.78;6.97;;;;;;;7.66;81.55;100445.85;1705238;84;21018;-79
2022/10/28 02:26:13;;;;;;;12.03;6.22;;;;;;;7.66;80.68;100440.67;1683685;84;21347;-80
2022/10/28 02:28:58;;;;;;;12.88;6.58;;;;;;;7.66;80.96;100451.03;1700652;84;21070;-79
2022/10/28 02:31:31;;;;;;;18.70;6.55;;;;;;;7.66;80.91;100448.03;1678898;82;21622;-80
2022/10/28 02:34:04;;;;;;;16.95;6.80;;;;;;;7.66;81.45;100441.56;1707516;84;21098;-79
2022/10/28 02:36:36;;;;;;;12.45;6.78;;;;;;;7.44;82.21;100410.76;1695510;82;21562;-83
2022/10/28 02:39:06;;;;;;;14.87;6.80;;;;;;;7.69;81.59;100445.45;1708423;84;21035;-80
2022/10/28 02:41:45;;;;;;;12.40;6.60;;;;;;;7.72;81.58;100449.81;1705533;84;21045;-79
2022/10/28 02:44:17;;;;;;;13.88;6.30;;;;;;;7.75;81.35;100449.39;1705171;83;21073;-80
2022/10/28 02:46:49;;;;;;;13.03;6.47;;;;;;;7.77;80.96;100448.11;1661642;85;21075;-81
2022/10/28 02:49:16;;;;;;;14.78;7.25;;;;;;;7.75;81.13;100437.73;1684767;84;21051;-79
2022/10/28 02:51:49;;;;;;;13.75;6.42;;;;;;;7.77;80.75;100439.05;1668308;85;21020;-80
2022/10/28 02:54:25;;;;;;;12.23;6.45;;;;;;;7.75;80.87;100441.63;1690285;82;21003;-79
2022/10/28 02:57:12;;;;;;;15.48;7.33;;;;;;;7.71;81.12;100432.09;1705237;82;21083;-80
2022/10/28 02:59:40;;;;;;;15.75;7.90;;;;;;;7.76;80.86;100438.19;1689176;84;21044;-80
2022/10/28 03:02:09;;;;;;;21.85;10.70;;;;;;;7.81;80.70;100439.95;1690618;84;21071;-80
2022/10/28 03:04:36;;;;;;;21.87;11.00;;;;;;;7.84;80.50;100443.44;1697767;82;22147;-80
2022/10/28 03:07:04;;;;;;;26.23;12.53;;;;;;;7.87;80.27;100449.05;1685106;84;21083;-79
2022/10/28 03:09:32;;;;;;;24.32;10.58;;;;;;;7.89;80.40;100451.23;1705504;82;21106;-82
2022/10/28 03:12:00;;;;;;;17.02;9.95;;;;;;;7.87;80.15;100443.44;1701916;84;20992;-81
2022/10/28 03:14:28;;;;;;;16.82;8.35;;;;;;;7.87;80.08;100442.58;1685430;84;21031;-81
2022/10/28 03:16:56;;;;;;;18.77;8.93;;;;;;;7.87;79.75;100440.84;1696759;84;21615;-84
2022/10/28 03:19:23;;;;;;;21.57;8.65;;;;;;;7.88;80.21;100441.74;1706117;84;21038;-83
2022/10/28 03:21:51;;;;;;;21.27;8.13;;;;;;;7.83;79.74;100435.65;1679133;84;21083;-79
2022/10/28 03:24:19;;;;;;;15.08;6.90;;;;;;;7.84;80.28;100442.55;1701328;84;21086;-78
2022/10/28 03:26:46;;;;;;;17.23;7.95;;;;;;;7.87;80.04;100441.29;1693004;84;21095;-79
2022/10/28 03:29:14;;;;;;;28.98;7.92;;;;;;;7.86;79.65;100441.72;1697391;82;21630;-80
2022/10/28 03:31:41;;;;;;;50.95;7.58;;;;;;;7.83;79.19;100440.39;1701273;83;21051;-82
2022/10/28 03:34:09;;;;;;;49.50;7.28;;;;;;;7.76;78.60;100440.78;1671141;85;21043;-82
2022/10/28 03:36:36;;;;;;;55.30;7.17;;;;;;;7.70;78.42;100441.14;1705844;82;21075;-80
2022/10/28 03:39:04;;;;;;;48.55;6.65;;;;;;;7.67;78.50;100440.70;1697151;84;21059;-85
2022/10/28 03:41:32;;;;;;;65.67;8.73;;;;;;;7.60;78.17;100451.88;1712068;83;21103;-84
2022/10/28 03:44:00;;;;;;;79.10;7.45;;;;;;;7.51;78.34;100452.64;1695004;84;21043;-82
2022/10/28 03:46:27;;;;;;;46.45;7.55;;;;;;;7.44;78.44;100451.27;1701095;82;21019;-82
2022/10/28 03:48:55;;;;;;;13.62;4.78;;;;;;;7.35;78.58;100446.45;1704413;82;21610;-84
2022/10/28 03:51:22;;;;;;;24.02;5.67;;;;;;;7.24;78.77;100448.48;1692758;84;21037;-81
2022/10/28 03:53:50;;;;;;;11.05;5.58;;;;;;;7.20;79.19;100446.29;1698336;82;21059;-80
2022/10/28 03:56:18;;;;;;;14.55;5.05;;;;;;;7.18;79.33;100442.82;1670405;85;21007;-79
2022/10/28 03:58:49;;;;;;;13.28;6.60;;;;;;;7.09;78.61;100450.50;1699964;84;21051;-79
2022/10/28 04:01:17;;;;;;;18.40;5.58;;;;;;;7.04;79.94;100445.26;1665959;85;21995;-80
2022/10/28 04:03:44;;;;;;;14.23;5.62;;;;;;;7.03;80.12;100451.30;1688605;84;21059;-79
2022/10/28 04:06:13;;;;;;;20.20;6.55;;;;;;;7.03;80.27;100450.44;1702695;82;21063;-80
2022/10/28 04:08:40;;;;;;;26.35;8.10;;;;;;;7.04;80.80;100448.28;1686851;84;21098;-80
2022/10/28 04:11:08;;;;;;;16.93;7.10;;;;;;;7.05;80.61;100444.86;1686370;85;21555;-79
2022/10/28 04:13:36;;;;;;;12.03;6.08;;;;;;;7.07;81.43;100447.03;1701682;82;21269;-79
2022/10/28 04:16:05;;;;;;;15.30;6.00;;;;;;;7.06;80.60;100446.58;1684425;84;21043;-80
2022/10/28 04:18:34;;;;;;;14.23;5.25;;;;;;;7.08;80.51;100449.64;1701461;84;22227;-79
2022/10/28 04:21:03;;;;;;;12.55;5.25;;;;;;;7.09;80.29;100443.61;1675981;85;21581;-82
2022/10/28 04:23:31;;;;;;;9.23;5.20;;;;;;;7.10;80.25;100436.70;1701925;84;21067;-80
2022/10/28 04:25:58;;;;;;;10.60;5.40;;;;;;;7.09;79.98;100435.84;1706763;84;21031;-79
2022/10/28 04:28:26;;;;;;;11.45;5.72;;;;;;;7.06;79.86;100446.17;1689414;82;21003;-79
2022/10/28 04:30:54;;;;;;;13.68;5.97;;;;;;;7.04;79.88;100440.52;1706810;82;21075;-80
2022/10/28 04:33:22;;;;;;;12.93;6.15;;;;;;;6.95;79.72;100442.59;1684907;83;21063;-80
2022/10/28 04:35:50;;;;;;;18.30;7.03;;;;;;;6.93;79.89;100439.98;1683475;84;21959;-80
2022/10/28 04:38:17;;;;;;;14.28;6.83;;;;;;;6.95;80.02;100447.33;1682882;85;21063;-80
2022/10/28 04:40:49;;;;;;;13.43;6.47;;;;;;;6.94;80.11;100442.13;1707394;82;21047;-79
2022/10/28 04:43:17;;;;;;;13.18;6.97;;;;;;;6.82;79.28;100436.40;1711379;83;21039;-79
2022/10/28 04:45:45;;;;;;;17.60;8.73;;;;;;;6.68;80.24;100443.98;1710937;82;21595;-81
2022/10/28 04:48:13;;;;;;;23.52;8.35;;;;;;;6.66;80.77;100443.53;1686761;85;22081;-81
2022/10/28 04:50:41;;;;;;;19.42;8.53;;;;;;;6.64;80.78;100441.36;1693050;82;21059;-81
2022/10/28 04:53:13;;;;;;;15.78;8.00;;;;;;;6.65;81.25;100449.13;1694920;82;21308;-81
2022/10/28 04:55:40;;;;;;;16.07;7.95;;;;;;;6.69;82.12;100446.17;1684450;82;21079;-79
2022/10/28 04:58:09;;;;;;;14.53;7.17;;;;;;;6.69;82.36;100443.16;1674452;85;21547;-80
2022/10/28 05:00:36;;;;;;;23.62;9.80;;;;;;;6.83;83.39;100450.22;1703390;84;21055;-80
2022/10/28 05:03:04;;;;;;;24.07;8.38;;;;;;;6.91;83.73;100443.41;1708934;84;21051;-82
2022/10/28 05:05:32;;;;;;;21.90;8.75;;;;;;;6.97;82.17;100449.51;1695021;84;21110;-79
2022/10/28 05:08:01;;;;;;;27.27;11.22;;;;;;;6.90;81.68;100450.31;1699428;84;21129;-80
2022/10/28 05:10:30;;;;;;;27.98;11.55;;;;;;;6.90;82.25;100453.30;1699924;84;21085;-81
2022/10/28 05:12:58;;;;;;;32.28;11.12;;;;;;;6.90;83.96;100451.60;1695298;82;21043;-80
2022/10/28 05:15:25;;;;;;;25.60;11.90;;;;;;;6.95;84.69;100458.11;1694824;84;21130;-81
2022/10/28 05:17:53;;;;;;;24.63;11.90;;;;;;;6.98;84.35;100454.25;1695185;84;21599;-80
2022/10/28 05:20:21;;;;;;;28.27;12.05;;;;;;;7.05;85.20;100450.03;1712394;84;21019;-82
2022/10/28 05:22:52;;;;;;;27.30;10.85;;;;;;;7.09;84.59;100452.66;1701485;82;21055;-79
2022/10/28 05:25:21;;;;;;;17.37;8.53;;;;;;;7.12;84.68;100456.98;1700767;84;21040;-81
2022/10/28 05:27:50;;;;;;;19.98;7.28;;;;;;;7.10;83.37;100459.58;1670602;85;21079;-82
2022/10/28 05:30:18;;;;;;;12.95;7.30;;;;;;;7.09;83.96;100463.44;1711753;82;21099;-83
2022/10/28 05:32:46;;;;;;;14.95;7.30;;;;;;;7.11;83.41;100468.20;1707345;84;21086;-86
2022/10/28 05:35:13;;;;;;;13.50;6.62;;;;;;;7.11;83.97;100463.89;1685719;85;21032;-82
2022/10/28 05:37:42;;;;;;;17.62;7.92;;;;;;;7.08;84.08;100468.15;1695173;83;21134;-83
2022/10/28 05:40:11;;;;;;;33.50;14.60;;;;;;;7.04;83.12;100473.70;1662267;84;21189;-82
2022/10/28 05:42:43;;;;;;;17.90;7.62;;;;;;;6.91;84.62;100466.25;1697430;84;21079;-81
2022/10/28 05:45:12;;;;;;;18.02;8.70;;;;;;;6.91;84.91;100467.54;1705840;84;21079;-82
2022/10/28 05:47:44;;;;;;;16.42;8.55;;;;;;;6.86;85.47;100465.31;1696263;84;20996;-81
2022/10/28 05:50:14;;;;;;;13.03;6.87;;;;;;;6.92;85.24;100473.57;1672687;85;21539;-81
2022/10/28 05:52:49;;;;;;;13.13;7.20;;;;;;;7.00;86.07;100474.95;1706011;84;21051;-80
2022/10/28 05:55:19;;;;;;;15.35;7.65;;;;;;;7.04;84.65;100477.59;1672593;85;21027;-81
2022/10/28 05:57:51;;;;;;;15.32;6.10;;;;;;;7.01;86.70;100474.98;1703915;84;21614;-80
2022/10/28 06:00:21;;;;;;;13.72;7.03;;;;;;;6.99;86.25;100475.83;1704061;82;21599;-83
2022/10/28 06:02:49;;;;;;;13.22;6.58;;;;;;;6.96;86.66;100478.81;1708738;82;21043;-79
2022/10/28 06:05:17;;;;;;;17.00;6.60;;;;;;;6.97;87.21;100479.67;1698005;84;21129;-82
2022/10/28 06:07:45;;;;;;;14.68;6.35;;;;;;;6.95;87.22;100480.94;1671509;85;21055;-82
2022/10/28 06:10:12;;;;;;;13.45;7.22;;;;;;;6.99;86.69;100488.31;1709679;82;21047;-82
2022/10/28 06:12:42;;;;;;;19.87;8.08;;;;;;;7.06;87.14;100489.24;1698205;82;21059;-80
2022/10/28 06:15:10;;;;;;;9.38;5.67;;;;;;;7.10;87.72;100484.15;1699499;82;21110;-81
2022/10/28 06:17:37;;;;;;;12.60;6.12;;;;;;;7.16;86.77;100498.44;1711494;82;21012;-81
2022/10/28 06:20:06;;;;;;;10.60;6.03;;;;;;;7.17;87.11;100495.42;1671430;85;21027;-79
2022/10/28 06:22:33;;;;;;;10.90;6.58;;;;;;;7.20;86.25;100496.73;1712106;82;21012;-79
2022/10/28 06:25:01;;;;;;;9.63;5.58;;;;;;;7.24;86.69;100500.22;1703599;82;21051;-79
2022/10/28 06:27:31;;;;;;;14.03;6.92;;;;;;;7.28;86.15;100498.11;1718134;82;21186;-79
2022/10/28 06:29:59;;;;;;;11.08;5.78;;;;;;;7.28;86.82;100500.70;1709816;82;21363;-79
2022/10/28 06:32:26;;;;;;;14.95;7.60;;;;;;;7.25;86.12;100506.71;1706904;82;21032;-79
2022/10/28 06:34:54;;;;;;;22.00;7.17;;;;;;;7.31;87.66;100497.72;1706606;82;21047;-78
2022/10/28 06:37:21;;;;;;;11.97;6.00;;;;;;;7.39;87.36;100500.39;1705546;82;21061;-79
2022/10/28 06:39:51;;;;;;;17.55;5.65;;;;;;;7.55;87.17;100510.47;1705143;82;21075;-79
2022/10/28 06:42:19;;;;;;;15.03;7.00;;;;;;;7.54;86.69;100506.14;1703483;82;21015;-80
2022/10/28 06:44:48;;;;;;;14.30;6.45;;;;;;;7.60;86.49;100506.22;1671121;85;21015;-79
2022/10/28 06:47:16;;;;;;;15.55;6.78;;;;;;;7.75;86.89;100514.11;1669798;85;21390;-80
2022/10/28 06:49:44;;;;;;;14.80;6.62;;;;;;;7.86;86.41;100508.16;1670712;85;21091;-79
2022/10/28 06:52:11;;;;;;;14.87;6.90;;;;;;;7.93;86.26;100510.81;1714377;82;21087;-79
2022/10/28 06:54:39;;;;;;;16.02;7.28;;;;;;;8.00;85.98;100514.34;1699430;82;21031;-79
2022/10/28 06:57:07;;;;;;;16.90;8.05;;;;;;;8.05;86.02;100516.52;1703639;82;21047;-79
2022/10/28 06:59:35;;;;;;;14.15;7.42;;;;;;;8.10;86.18;100511.40;1671205;85;21031;-79
2022/10/28 07:02:02;;;;;;;16.52;7.78;;;;;;;8.08;86.02;100520.44;1694909;82;22501;-79
2022/10/28 07:04:30;;;;;;;14.40;7.70;;;;;;;8.13;86.39;100513.56;1706713;82;21107;-79
2022/10/28 07:06:58;;;;;;;14.13;6.92;;;;;;;8.27;86.97;100513.66;1703589;82;21074;-80
2022/10/28 07:09:26;;;;;;;17.85;7.58;;;;;;;8.40;86.20;100517.22;1713163;82;21567;-80
2022/10/28 07:11:53;;;;;;;16.52;6.90;;;;;;;8.38;85.75;100524.12;1724015;82;21146;-79
2022/10/28 07:14:21;;;;;;;14.95;7.28;;;;;;;8.42;85.96;100527.20;1713368;82;21114;-80
2022/10/28 07:16:49;;;;;;;13.35;6.12;;;;;;;8.52;86.08;100521.65;1718970;82;21015;-80
2022/10/28 07:19:16;;;;;;;16.30;7.17;;;;;;;8.61;85.57;100523.41;1711028;82;21688;-80
2022/10/28 07:21:47;;;;;;;11.55;6.00;;;;;;;8.65;85.46;100520.84;1666440;85;21031;-80
2022/10/28 07:24:14;;;;;;;12.93;6.40;;;;;;;8.74;85.69;100518.74;1719761;82;21087;-84
2022/10/28 07:26:42;;;;;;;20.25;6.65;;;;;;;8.75;85.57;100519.16;1712829;82;21015;-85
2022/10/28 07:29:09;;;;;;;16.23;6.90;;;;;;;8.87;85.35;100524.44;1720129;82;21114;-84
2022/10/28 07:31:37;;;;;;;14.50;7.92;;;;;;;8.91;85.03;100513.62;1714836;82;22240;-82
2022/10/28 07:34:04;;;;;;;16.10;7.22;;;;;;;8.89;84.80;100516.23;1711335;82;21586;-81
2022/10/28 07:36:32;;;;;;;12.20;7.78;;;;;;;8.92;84.94;100521.41;1673805;85;21070;-80
2022/10/28 07:39:00;;;;;;;16.35;7.97;;;;;;;8.99;85.07;100517.11;1714480;82;21110;-79
2022/10/28 07:41:28;;;;;;;14.15;7.15;;;;;;;9.04;84.90;100512.82;1714636;82;20999;-79
2022/10/28 07:43:56;;;;;;;19.98;8.90;;;;;;;9.11;85.03;100515.89;1722692;82;22208;-78
2022/10/28 07:46:23;;;;;;;21.40;7.87;;;;;;;9.22;84.73;100515.05;1706215;82;21090;-79
2022/10/28 07:48:51;;;;;;;20.30;8.20;;;;;;;9.31;84.46;100509.86;1726325;82;20991;-78
2022/10/28 07:51:19;;;;;;;18.32;7.60;;;;;;;9.32;84.93;100509.88;1712356;82;21351;-80
2022/10/28 07:53:47;;;;;;;19.07;6.67;;;;;;;9.50;84.86;100512.09;1717213;82;21362;-79
2022/10/28 07:56:15;;;;;;;25.30;7.70;;;;;;;9.64;84.53;100512.11;1702053;82;21031;-78
2022/10/28 07:58:44;;;;;;;22.17;8.53;;;;;;;9.61;84.24;100512.98;1726339;82;21150;-78
2022/10/28 08:01:15;;;;;;;20.43;9.00;;;;;;;9.63;84.07;100507.36;1710773;82;20991;-80
2022/10/28 08:03:43;;;;;;;23.10;9.18;;;;;;;9.73;83.81;100507.80;1720920;82;21067;-78
2022/10/28 08:06:16;;;;;;;20.95;8.88;;;;;;;9.63;83.79;100506.06;1675679;85;21565;-79
2022/10/28 08:08:48;;;;;;;27.42;11.93;;;;;;;9.70;83.94;100508.22;1715742;82;21055;-79
2022/10/28 08:11:18;;;;;;;22.62;9.90;;;;;;;9.76;84.10;100506.92;1690299;82;21067;-78
2022/10/28 08:13:47;;;;;;;14.73;7.70;;;;;;;9.85;84.18;100500.89;1707483;84;21038;-79
2022/10/28 08:16:15;;;;;;;16.15;8.70;;;;;;;9.93;83.86;100496.56;1708929;82;21015;-78
2022/10/28 08:18:44;;;;;;;13.88;7.55;;;;;;;10.00;83.81;100498.72;1721644;82;21106;-79
2022/10/28 08:21:13;;;;;;;18.67;7.62;;;;;;;10.08;83.79;100499.13;1671080;84;21047;-79
2022/10/28 08:23:45;;;;;;;17.32;6.85;;;;;;;10.15;83.61;100495.67;1717792;82;21044;-77
2022/10/28 08:26:12;;;;;;;16.95;7.03;;;;;;;10.23;83.18;100499.56;1719778;82;21042;-79
2022/10/28 08:28:40;;;;;;;19.35;7.50;;;;;;;10.19;82.91;100502.18;1705008;82;21028;-78
2022/10/28 08:31:08;;;;;;;20.15;6.92;;;;;;;10.22;83.10;100497.81;1717294;82;21385;-78
2022/10/28 08:33:41;;;;;;;18.77;8.08;;;;;;;10.32;82.54;100498.70;1701305;82;21597;-78
2022/10/28 08:36:12;;;;;;;12.78;7.28;;;;;;;10.27;82.87;100493.49;1718820;82;21107;-79
2022/10/28 08:38:39;;;;;;;21.40;7.10;;;;;;;10.34;83.14;100496.56;1709147;82;21559;-78
2022/10/28 08:41:24;;;;;;;13.48;7.12;;;;;;;10.40;82.88;100500.00;1709910;82;21032;-77
2022/10/28 08:44:31;;;;;;;17.73;7.72;;;;;;;10.47;82.94;100496.53;1706666;82;21512;-79
2022/10/28 08:47:46;;;;;;;22.05;8.45;;;;;;;10.57;83.15;100486.53;1709288;82;21094;-80
2022/10/28 08:50:17;;;;;;;27.75;11.43;;;;;;;10.69;82.48;100490.83;1662179;84;21075;-79
2022/10/28 08:52:59;;;;;;;18.98;9.25;;;;;;;10.75;82.92;100499.91;1670121;85;21047;-79
2022/10/28 08:55:40;;;;;;;20.00;9.33;;;;;;;10.79;82.70;100486.47;1705690;82;21035;-78
2022/10/28 08:58:27;;;;;;;22.62;8.05;;;;;;;10.89;82.79;100488.16;1705117;82;21040;-78
2022/10/28 09:00:58;;;;;;;15.38;7.65;;;;;;;11.02;82.65;100488.95;1697223;82;20991;-78
2022/10/28 09:03:34;;;;;;;20.88;8.53;;;;;;;11.13;82.35;100488.03;1703410;82;21024;-79
2022/10/28 09:06:05;;;;;;;20.08;8.75;;;;;;;11.19;82.62;100488.44;1713141;82;20996;-79
2022/10/28 09:08:39;;;;;;;16.70;8.88;;;;;;;11.28;82.39;100485.80;1704068;82;21039;-80
2022/10/28 09:11:32;;;;;;;22.30;8.95;;;;;;;11.38;82.48;100479.21;1708918;82;21586;-81
2022/10/28 09:14:23;;;;;;;22.13;10.55;;;;;;;11.46;82.41;100482.62;1721957;82;21566;-79
2022/10/28 09:16:59;;;;;;;21.25;9.28;;;;;;;11.62;82.06;100485.99;1700191;82;21083;-82
2022/10/28 09:19:43;;;;;;;20.23;9.10;;;;;;;11.70;82.20;100481.63;1658695;85;21036;-79
2022/10/28 09:22:33;;;;;;;23.55;9.45;;;;;;;11.82;81.88;100478.05;1714182;82;21530;-81
2022/10/28 09:25:23;;;;;;;18.65;8.23;;;;;;;11.93;81.59;100477.09;1711498;82;21044;-79
2022/10/28 09:28:05;;;;;;;16.82;8.40;;;;;;;12.04;81.09;100474.41;1710793;82;21036;-80
2022/10/28 09:30:53;;;;;;;24.27;9.98;;;;;;;12.12;81.21;100473.04;1706657;82;20993;-78
2022/10/28 09:33:54;;;;;;;16.42;8.38;;;;;;;12.26;81.30;100468.55;1707860;82;21115;-80
2022/10/28 09:36:30;;;;;;;34.92;18.65;;;;;;;12.42;81.07;100456.21;1714633;82;21524;-78
2022/10/28 09:39:01;;;;;;;23.40;9.90;;;;;;;12.59;80.58;100461.22;1715069;82;21031;-78
2022/10/28 09:41:37;;;;;;;20.52;11.50;;;;;;;12.65;80.24;100454.66;1714754;82;21055;-79
2022/10/28 09:44:13;;;;;;;36.17;13.85;;;;;;;12.75;80.30;100448.86;1707336;82;21050;-79
2022/10/28 09:46:47;;;;;;;43.70;14.65;;;;;;;12.85;79.73;100448.31;1707434;82;21047;-80
2022/10/28 09:49:29;;;;;;;17.27;8.85;;;;;;;12.95;79.20;100444.69;1701325;82;22291;-81
2022/10/28 09:52:26;;;;;;;26.27;10.13;;;;;;;13.03;78.84;100438.95;1706739;82;21069;-78
2022/10/28 09:54:57;;;;;;;16.70;7.87;;;;;;;13.11;79.10;100435.78;1673455;84;21000;-78
2022/10/28 09:57:29;;;;;;;17.32;9.63;;;;;;;13.27;78.87;100431.62;1672137;84;21079;-79
2022/10/28 09:59:59;;;;;;;13.30;7.58;;;;;;;13.38;78.37;100436.74;1691918;82;21510;-79
2022/10/28 10:02:30;;;;;;;14.23;8.00;;;;;;;13.46;78.28;100429.19;1704490;82;21912;-79
2022/10/28 10:05:00;;;;;;;16.25;8.18;;;;;;;13.53;78.00;100420.38;1711088;82;21654;-79
2022/10/28 10:07:37;;;;;;;40.73;17.37;;;;;;;13.66;77.84;100421.48;1706545;82;21079;-79
2022/10/28 10:10:15;;;;;;;24.50;11.55;;;;;;;13.77;78.03;100418.26;1701338;82;21356;-78
2022/10/28 10:12:43;;;;;;;23.90;9.93;;;;;;;13.92;77.97;100418.42;1702252;82;21051;-78
2022/10/28 10:15:34;;;;;;;19.50;9.18;;;;;;;14.06;77.78;100409.87;1707290;82;21567;-79
2022/10/28 10:18:05;;;;;;;20.95;10.40;;;;;;;14.22;77.34;100408.28;1701703;82;21087;-82
2022/10/28 10:20:56;;;;;;;16.48;8.40;;;;;;;14.35;76.82;100408.48;1700973;82;21554;-77
2022/10/28 10:23:32;;;;;;;16.85;8.63;;;;;;;14.47;76.68;100408.23;1706900;82;20991;-78
2022/10/28 10:26:10;;;;;;;16.97;8.50;;;;;;;14.65;76.62;100404.40;1709880;82;21039;-79
2022/10/28 10:28:44;;;;;;;17.30;8.20;;;;;;;14.79;75.63;100395.41;1710159;82;21078;-79
2022/10/28 10:31:24;;;;;;;21.95;11.03;;;;;;;14.90;75.61;100390.34;1716711;82;21012;-79
2022/10/28 10:33:57;;;;;;;27.35;14.03;;;;;;;15.11;75.20;100389.44;1673318;85;21032;-83
2022/10/28 10:36:27;;;;;;;22.65;11.53;;;;;;;15.33;75.33;100385.01;1725602;82;21067;-81
2022/10/28 10:38:58;;;;;;;19.57;9.15;;;;;;;15.49;74.24;100381.11;1709619;82;21051;-79
2022/10/28 10:41:43;;;;;;;29.67;12.90;;;;;;;15.65;74.31;100387.67;1707804;82;21063;-79
2022/10/28 10:44:25;;;;;;;39.50;16.60;;;;;;;15.81;72.21;100378.15;1710839;82;21039;-79
2022/10/28 10:47:04;;;;;;;24.90;10.08;;;;;;;15.91;73.21;100380.94;1695939;82;21031;-79
2022/10/28 10:49:33;;;;;;;18.32;9.05;;;;;;;16.07;72.84;100375.67;1710940;82;21055;-80
2022/10/28 10:52:09;;;;;;;22.35;8.05;;;;;;;16.20;72.41;100370.13;1720849;82;21020;-80
2022/10/28 10:54:37;;;;;;;16.37;7.65;;;;;;;16.35;72.83;100364.88;1712530;82;21646;-80
2022/10/28 10:57:20;;;;;;;14.85;6.80;;;;;;;16.53;71.95;100363.02;1716572;82;21019;-78
2022/10/28 10:59:51;;;;;;;18.32;7.58;;;;;;;16.63;71.37;100358.36;1716957;82;21076;-82
2022/10/28 11:02:24;;;;;;;17.10;6.90;;;;;;;16.80;71.05;100362.66;1715696;82;21551;-79
2022/10/28 11:04:56;;;;;;;12.58;7.17;;;;;;;17.02;71.05;100354.14;1708730;82;21154;-79
2022/10/28 11:07:27;;;;;;;14.93;7.30;;;;;;;17.21;69.61;100355.28;1717505;82;21031;-79
2022/10/28 11:09:55;;;;;;;13.13;6.45;;;;;;;17.32;69.71;100355.38;1715150;82;21020;-78
2022/10/28 11:12:34;;;;;;;15.03;7.22;;;;;;;17.43;65.39;100345.39;1670310;85;21035;-81
2022/10/28 11:15:06;;;;;;;13.50;6.60;;;;;;;17.56;69.03;100345.36;1717671;82;21031;-78
2022/10/28 11:17:34;;;;;;;15.98;7.55;;;;;;;17.76;69.23;100338.09;1727150;82;21047;-78
2022/10/28 11:20:23;;;;;;;18.60;7.17;;;;;;;17.98;69.10;100340.85;1724015;82;21590;-79
2022/10/28 11:23:06;;;;;;;16.07;6.60;;;;;;;18.19;68.41;100344.95;1721363;82;21048;-79
2022/10/28 11:25:38;;;;;;;13.10;5.37;;;;;;;18.38;67.46;100328.88;1720992;82;21574;-79
2022/10/28 11:28:58;;;;;;;15.18;5.60;;;;;;;18.59;67.58;100330.30;1678151;84;21051;-78
2022/10/28 11:31:51;;;;;;;13.62;5.80;;;;;;;18.76;66.70;100328.30;1723484;82;21095;-79
2022/10/28 11:34:55;;;;;;;13.70;6.37;;;;;;;19.11;64.24;100322.13;1730754;82;21075;-78
2022/10/28 11:37:28;;;;;;;11.18;5.95;;;;;;;19.34;64.37;100324.67;1724332;82;21015;-80
2022/10/28 11:40:33;;;;;;;14.00;5.25;;;;;;;19.61;61.94;100320.46;1709905;82;21003;-80
2022/10/28 11:43:30;;;;;;;17.62;6.30;;;;;;;19.84;61.23;100311.59;1717199;82;21519;-79
2022/10/28 11:46:14;;;;;;;17.45;8.33;;;;;;;20.08;63.38;100308.31;1713939;82;21620;-79
2022/10/28 11:49:19;;;;;;;30.20;12.35;;;;;;;20.37;61.81;100308.75;1710758;82;21943;-79
2022/10/28 11:52:42;;;;;;;13.98;7.62;;;;;;;20.64;59.07;100306.65;1716399;82;21578;-79
2022/10/28 11:55:17;;;;;;;36.05;15.00;;;;;;;21.01;60.11;100306.20;1711999;82;21034;-79